Time;durP1;ratioP1;P1;durP2;ratioP2;P2;SDS_P1;SDS_P2;PMS_P1;PMS_P2;Temp;Humidity;BMP_temperature;BMP_pressure;BME280_temperature;BME280_humidity;BME280_pressure;Samples;Min_cycle;Max_cycle;Signal;HPM_P1;HPM_P2
2024/01/21 00:02:21;;;;;;;;;25.75;23.50;;;;;;;;5044651;28;45359;-79
2024/01/21 00:04:46;;;;;;;;;25.75;23.50;;;;;;;;5048447;28;45366;-79
2024/01/21 00:07:11;;;;;;;;;25.75;23.75;;;;;;;;5049731;28;45388;-79
2024/01/21 00:09:37;;;;;;;;;27.75;27.25;;;;;;;;5050683;28;45358;-79
2024/01/21 00:12:02;;;;;;;;;24.75;24.50;;;;;;;;5047702;28;47844;-80
2024/01/21 00:14:27;;;;;;;;;28.50;26.25;;;;;;;;5054665;28;45353;-81
2024/01/21 00:16:52;;;;;;;;;27.50;24.75;;;;;;;;5052353;28;44757;-80
2024/01/21 00:19:18;;;;;;;;;32.50;23.75;;;;;;;;5052834;28;45398;-79
2024/01/21 00:21:43;;;;;;;;;21.25;20.50;;;;;;;;5057005;28;45570;-79
2024/01/21 00:24:08;;;;;;;;;26.00;25.00;;;;;;;;5049613;28;45298;-80
2024/01/21 00:26:33;;;;;;;;;28.25;24.00;;;;;;;;5047463;28;45430;-80
2024/01/21 00:29:00;;;;;;;;;28.00;25.50;;;;;;;;5048626;28;46389;-80
2024/01/21 00:31:26;;;;;;;;;25.00;23.50;;;;;;;;5048865;28;47162;-79
2024/01/21 00:33:51;;;;;;;;;25.25;22.75;;;;;;;;5054715;28;45454;-79
2024/01/21 00:36:16;;;;;;;;;29.00;26.50;;;;;;;;5049870;28;45543;-80
2024/01/21 00:38:41;;;;;;;;;20.75;18.75;;;;;;;;5051491;28;47151;-80
2024/01/21 00:41:07;;;;;;;;;21.75;20.00;;;;;;;;5045478;28;47028;-80
2024/01/21 00:43:32;;;;;;;;;26.50;24.00;;;;;;;;5056587;28;45195;-79
2024/01/21 00:45:57;;;;;;;;;21.50;19.50;;;;;;;;5074365;28;45296;-79
2024/01/21 00:48:22;;;;;;;;;20.25;19.75;;;;;;;;5077576;28;45218;-79
2024/01/21 00:50:47;;;;;;;;;27.00;25.75;;;;;;;;5072399;28;48083;-80
2024/01/21 00:53:12;;;;;;;;;23.25;21.50;;;;;;;;5077494;27;45440;-80
2024/01/21 00:55:40;;;;;;;;;20.50;20.50;;;;;;;;5073766;28;45238;-79
2024/01/21 00:58:05;;;;;;;;;17.25;17.25;;;;;;;;5088128;28;45359;-79
2024/01/21 01:00:30;;;;;;;;;22.25;21.25;;;;;;;;5069974;28;46373;-78
2024/01/21 01:02:55;;;;;;;;;25.75;24.25;;;;;;;;5073282;28;45879;-79
2024/01/21 01:05:21;;;;;;;;;22.50;22.50;;;;;;;;5093538;28;45253;-79
2024/01/21 01:07:46;;;;;;;;;27.50;22.50;;;;;;;;5088879;28;45326;-79
2024/01/21 01:10:11;;;;;;;;;25.00;22.25;;;;;;;;5072310;28;47960;-79
2024/01/21 01:12:36;;;;;;;;;21.75;20.50;;;;;;;;5088896;28;45452;-79
2024/01/21 01:15:01;;;;;;;;;26.75;23.75;;;;;;;;5092368;28;45309;-79
2024/01/21 01:17:26;;;;;;;;;23.25;23.25;;;;;;;;5089864;28;45288;-80
2024/01/21 01:19:52;;;;;;;;;27.00;22.50;;;;;;;;5089995;28;45462;-80
2024/01/21 01:22:17;;;;;;;;;18.25;18.25;;;;;;;;5069301;28;45336;-80
2024/01/21 01:24:42;;;;;;;;;23.75;23.00;;;;;;;;5069366;28;45374;-80
2024/01/21 01:27:07;;;;;;;;;23.50;21.25;;;;;;;;5069609;28;45887;-79
2024/01/21 01:29:32;;;;;;;;;25.25;22.25;;;;;;;;5069861;28;47762;-79
2024/01/21 01:31:58;;;;;;;;;23.00;22.00;;;;;;;;5086897;28;45539;-80
2024/01/21 01:34:23;;;;;;;;;32.00;28.00;;;;;;;;5088069;28;45366;-79
2024/01/21 01:36:48;;;;;;;;;17.00;17.00;;;;;;;;5087103;28;45430;-80
2024/01/21 01:39:13;;;;;;;;;22.75;22.75;;;;;;;;5088210;28;46700;-79
2024/01/21 01:41:38;;;;;;;;;21.75;20.75;;;;;;;;5070711;28;45285;-79
2024/01/21 01:44:03;;;;;;;;;24.75;22.75;;;;;;;;5067714;28;45256;-79
2024/01/21 01:46:29;;;;;;;;;32.00;27.50;;;;;;;;5086411;28;45321;-79
2024/01/21 01:48:54;;;;;;;;;24.50;21.75;;;;;;;;5066824;28;47035;-80
2024/01/21 01:51:19;;;;;;;;;23.25;23.00;;;;;;;;5088033;28;45435;-79
2024/01/21 01:53:45;;;;;;;;;32.00;25.00;;;;;;;;5084749;28;45517;-80
2024/01/21 01:56:11;;;;;;;;;25.00;22.75;;;;;;;;5067013;28;46367;-79
2024/01/21 01:58:37;;;;;;;;;28.50;27.00;;;;;;;;5052997;28;47260;-79
2024/01/21 02:01:02;;;;;;;;;23.50;23.25;;;;;;;;5065456;28;45288;-79
2024/01/21 02:03:28;;;;;;;;;20.50;20.50;;;;;;;;5065192;28;45284;-79
2024/01/21 02:05:53;;;;;;;;;22.25;21.00;;;;;;;;5067004;28;45305;-79
2024/01/21 02:08:18;;;;;;;;;25.25;23.25;;;;;;;;5066222;28;45589;-79
2024/01/21 02:10:43;;;;;;;;;24.25;21.75;;;;;;;;5048331;28;45264;-79
2024/01/21 02:13:09;;;;;;;;;26.50;23.25;;;;;;;;5063808;28;45312;-79
2024/01/21 02:15:34;;;;;;;;;28.00;28.00;;;;;;;;5065331;28;45516;-78
2024/01/21 02:17:59;;;;;;;;;23.00;21.75;;;;;;;;5065736;28;45285;-80
2024/01/21 02:20:24;;;;;;;;;29.00;24.25;;;;;;;;5065557;28;45204;-80
2024/01/21 02:22:50;;;;;;;;;29.00;22.00;;;;;;;;5064418;28;45477;-79
2024/01/21 02:25:15;;;;;;;;;25.25;24.50;;;;;;;;5064691;28;45465;-80
2024/01/21 02:27:40;;;;;;;;;21.00;21.00;;;;;;;;5063768;28;45360;-79
2024/01/21 02:30:06;;;;;;;;;24.50;24.50;;;;;;;;5065978;28;45304;-80
2024/01/21 02:32:31;;;;;;;;;30.25;28.00;;;;;;;;5065343;28;45364;-79
2024/01/21 02:34:56;;;;;;;;;29.50;22.75;;;;;;;;5046256;28;47040;-80
2024/01/21 02:37:22;;;;;;;;;28.75;21.75;;;;;;;;5067692;28;45417;-79
2024/01/21 02:39:47;;;;;;;;;25.50;21.50;;;;;;;;5067781;28;45303;-80
2024/01/21 02:42:12;;;;;;;;;24.50;21.25;;;;;;;;5064676;28;45367;-80
2024/01/21 02:44:37;;;;;;;;;27.25;27.25;;;;;;;;5067319;28;45289;-80
2024/01/21 02:47:03;;;;;;;;;23.25;20.25;;;;;;;;5064167;28;45295;-79
2024/01/21 02:49:28;;;;;;;;;31.25;29.25;;;;;;;;5066268;28;45310;-79
2024/01/21 02:51:57;;;;;;;;;24.25;23.50;;;;;;;;5067801;28;45330;-79
2024/01/21 02:54:22;;;;;;;;;26.25;24.75;;;;;;;;5066421;28;45485;-79
2024/01/21 02:56:48;;;;;;;;;27.75;25.00;;;;;;;;5063193;28;48141;-79
2024/01/21 02:59:13;;;;;;;;;23.75;22.75;;;;;;;;5070524;28;45514;-79
2024/01/21 03:01:39;;;;;;;;;27.25;25.75;;;;;;;;5065149;28;45529;-81
2024/01/21 03:04:05;;;;;;;;;23.00;22.00;;;;;;;;5070043;28;45742;-80
2024/01/21 03:06:30;;;;;;;;;23.25;20.50;;;;;;;;5064973;28;45883;-79
2024/01/21 03:08:55;;;;;;;;;29.75;24.00;;;;;;;;5066250;28;45196;-79
2024/01/21 03:11:20;;;;;;;;;24.75;23.50;;;;;;;;5046874;28;45316;-79
2024/01/21 03:13:46;;;;;;;;;30.00;29.50;;;;;;;;5048000;28;47107;-80
2024/01/21 03:16:11;;;;;;;;;29.25;26.25;;;;;;;;5047784;28;47313;-80
2024/01/21 03:18:38;;;;;;;;;25.50;25.25;;;;;;;;5046859;28;45322;-80
2024/01/21 03:21:04;;;;;;;;;35.00;28.50;;;;;;;;5065839;28;45322;-79
2024/01/21 03:23:29;;;;;;;;;26.00;24.00;;;;;;;;5062998;28;45488;-80
2024/01/21 03:25:54;;;;;;;;;25.00;24.50;;;;;;;;5047663;28;48070;-79
2024/01/21 03:28:19;;;;;;;;;30.00;27.00;;;;;;;;5049406;28;45318;-80
2024/01/21 03:30:45;;;;;;;;;29.00;23.00;;;;;;;;5045207;28;45347;-80
2024/01/21 03:33:10;;;;;;;;;26.75;24.00;;;;;;;;5063101;28;45331;-80
2024/01/21 03:35:35;;;;;;;;;18.50;18.50;;;;;;;;5066345;28;46248;-79
2024/01/21 03:38:00;;;;;;;;;26.25;22.00;;;;;;;;5065802;28;45224;-79
2024/01/21 03:40:25;;;;;;;;;25.25;21.75;;;;;;;;5068110;28;45333;-79
2024/01/21 03:42:50;;;;;;;;;27.75;23.00;;;;;;;;5068957;28;45420;-80
2024/01/21 03:45:16;;;;;;;;;22.75;21.25;;;;;;;;5051695;28;47489;-79
2024/01/21 03:47:41;;;;;;;;;18.25;17.00;;;;;;;;5058765;28;45541;-80
2024/01/21 03:50:06;;;;;;;;;27.00;25.25;;;;;;;;5068182;28;45223;-80
2024/01/21 03:52:31;;;;;;;;;27.75;22.00;;;;;;;;5071527;28;45374;-79
2024/01/21 03:54:57;;;;;;;;;21.75;20.00;;;;;;;;5074276;28;45503;-80
2024/01/21 03:57:22;;;;;;;;;20.50;19.00;;;;;;;;5075086;28;45280;-80
2024/01/21 03:59:47;;;;;;;;;13.75;12.00;;;;;;;;5075053;28;45213;-79
2024/01/21 04:02:12;;;;;;;;;19.00;18.75;;;;;;;;5052903;28;45805;-80
2024/01/21 04:04:37;;;;;;;;;19.00;17.50;;;;;;;;5074539;28;46692;-79
2024/01/21 04:07:03;;;;;;;;;23.25;21.25;;;;;;;;5071852;28;45421;-80
2024/01/21 04:09:28;;;;;;;;;19.75;18.50;;;;;;;;5069524;28;45265;-80
2024/01/21 04:11:53;;;;;;;;;19.50;18.50;;;;;;;;5050813;28;45371;-80
2024/01/21 04:14:18;;;;;;;;;15.50;14.00;;;;;;;;5072009;28;45288;-80
2024/01/21 04:16:43;;;;;;;;;24.00;19.25;;;;;;;;5054370;28;46048;-81
2024/01/21 04:19:09;;;;;;;;;19.75;19.75;;;;;;;;5072768;28;45259;-80
2024/01/21 04:21:34;;;;;;;;;20.00;18.75;;;;;;;;5056954;28;46422;-79
2024/01/21 04:24:02;;;;;;;;;16.00;15.25;;;;;;;;5052192;28;48521;-80
2024/01/21 04:26:27;;;;;;;;;20.00;19.00;;;;;;;;5052176;28;45433;-79
2024/01/21 04:28:52;;;;;;;;;15.25;14.75;;;;;;;;5069547;28;45461;-80
2024/01/21 04:31:17;;;;;;;;;14.00;14.00;;;;;;;;5053541;28;45836;-79
2024/01/21 04:33:42;;;;;;;;;24.00;21.00;;;;;;;;5076497;28;46405;-80
2024/01/21 04:36:08;;;;;;;;;19.50;17.00;;;;;;;;5068367;28;45272;-79
2024/01/21 04:38:34;;;;;;;;;18.00;18.00;;;;;;;;5048001;28;45328;-79
2024/01/21 04:40:59;;;;;;;;;17.25;16.75;;;;;;;;5065328;28;45218;-79
2024/01/21 04:43:24;;;;;;;;;19.50;17.75;;;;;;;;5066411;28;45306;-79
2024/01/21 04:45:49;;;;;;;;;18.75;18.00;;;;;;;;5047744;28;45285;-81
2024/01/21 04:48:15;;;;;;;;;23.50;22.75;;;;;;;;5065632;28;45217;-79
2024/01/21 04:50:40;;;;;;;;;19.50;16.25;;;;;;;;5064173;28;45330;-80
2024/01/21 04:53:05;;;;;;;;;18.50;16.75;;;;;;;;5047460;28;47963;-79
2024/01/21 04:55:30;;;;;;;;;15.00;14.25;;;;;;;;5066664;28;45291;-79
2024/01/21 04:57:55;;;;;;;;;19.75;18.25;;;;;;;;5065528;28;45209;-80
2024/01/21 05:00:21;;;;;;;;;14.75;14.00;;;;;;;;5068162;28;45319;-79
2024/01/21 05:02:46;;;;;;;;;17.75;15.75;;;;;;;;5066015;28;46108;-80
2024/01/21 05:05:12;;;;;;;;;16.00;16.00;;;;;;;;5045934;28;45302;-80
2024/01/21 05:07:37;;;;;;;;;18.75;16.75;;;;;;;;5068451;28;45552;-80
2024/01/21 05:10:03;;;;;;;;;17.00;13.75;;;;;;;;5068200;28;45450;-79
2024/01/21 05:12:28;;;;;;;;;17.00;16.00;;;;;;;;5070019;28;45220;-80
2024/01/21 05:14:55;;;;;;;;;18.50;18.25;;;;;;;;5053339;28;45892;-79
2024/01/21 05:17:21;;;;;;;;;14.50;14.50;;;;;;;;5052246;28;45450;-78
2024/01/21 05:19:46;;;;;;;;;16.25;15.25;;;;;;;;5072114;28;45288;-80
2024/01/21 05:22:11;;;;;;;;;13.50;10.50;;;;;;;;5071632;28;45292;-80
2024/01/21 05:24:36;;;;;;;;;14.75;14.25;;;;;;;;5063603;28;45419;-80
2024/01/21 05:27:01;;;;;;;;;14.50;14.50;;;;;;;;5087207;28;45350;-79
2024/01/21 05:29:27;;;;;;;;;14.25;13.75;;;;;;;;5071756;28;45906;-79
2024/01/21 05:31:52;;;;;;;;;15.50;14.25;;;;;;;;5086972;28;45361;-80
2024/01/21 05:34:17;;;;;;;;;15.50;14.75;;;;;;;;5087380;28;45370;-80
2024/01/21 05:36:42;;;;;;;;;17.50;14.25;;;;;;;;5062373;28;45312;-80
2024/01/21 05:39:07;;;;;;;;;16.00;14.25;;;;;;;;5068024;28;45379;-80
2024/01/21 05:41:33;;;;;;;;;12.00;12.00;;;;;;;;5051883;28;46998;-80
2024/01/21 05:43:58;;;;;;;;;13.25;12.75;;;;;;;;5073621;28;45387;-80
2024/01/21 05:46:23;;;;;;;;;15.50;15.50;;;;;;;;5075166;28;45355;-80
2024/01/21 05:48:49;;;;;;;;;16.75;15.00;;;;;;;;5077082;28;45545;-79
2024/01/21 05:51:14;;;;;;;;;20.25;18.00;;;;;;;;5075851;28;45503;-81
2024/01/21 05:53:41;;;;;;;;;17.75;17.75;;;;;;;;5081306;28;44642;-80
2024/01/21 05:56:06;;;;;;;;;15.75;15.75;;;;;;;;5083631;28;44559;-80
2024/01/21 05:58:31;;;;;;;;;15.75;15.75;;;;;;;;5083055;28;45300;-80
2024/01/21 06:00:57;;;;;;;;;15.67;14.67;;;;;;;;5081890;28;46592;-80
2024/01/21 06:03:22;;;;;;;;;21.75;18.00;;;;;;;;5063863;28;45250;-81
2024/01/21 06:05:47;;;;;;;;;16.50;14.00;;;;;;;;5084489;28;45208;-80
2024/01/21 06:08:12;;;;;;;;;16.25;15.50;;;;;;;;5083568;28;45208;-80
2024/01/21 06:10:37;;;;;;;;;13.75;13.75;;;;;;;;5059111;28;48078;-80
2024/01/21 06:13:03;;;;;;;;;14.25;14.25;;;;;;;;5080381;28;44607;-80
2024/01/21 06:15:28;;;;;;;;;14.00;14.00;;;;;;;;5080994;28;45260;-80
2024/01/21 06:17:53;;;;;;;;;18.50;15.75;;;;;;;;5079988;28;45162;-80
2024/01/21 06:20:19;;;;;;;;;16.50;15.00;;;;;;;;5057093;28;46960;-81
2024/01/21 06:22:44;;;;;;;;;14.00;12.33;;;;;;;;5077563;28;45238;-81
2024/01/21 06:25:09;;;;;;;;;16.00;16.00;;;;;;;;5058102;28;45232;-81
2024/01/21 06:27:34;;;;;;;;;16.25;14.25;;;;;;;;5073831;28;45305;-81
2024/01/21 06:30:10;;;;;;;;;16.50;12.75;;;;;;;;5073407;28;46193;-81
2024/01/21 06:32:35;;;;;;;;;12.50;12.50;;;;;;;;5052136;28;45328;-82
2024/01/21 06:35:00;;;;;;;;;15.25;14.00;;;;;;;;5052954;28;45174;-81
2024/01/21 06:37:25;;;;;;;;;18.50;15.25;;;;;;;;5066244;28;45268;-82
2024/01/21 06:39:50;;;;;;;;;13.00;12.33;;;;;;;;5066930;28;45449;-82
2024/01/21 06:42:16;;;;;;;;;15.75;12.50;;;;;;;;5062113;28;45292;-82
2024/01/21 06:44:41;;;;;;;;;15.33;13.33;;;;;;;;5044205;28;45438;-83
2024/01/21 06:47:07;;;;;;;;;12.00;12.00;;;;;;;;5062024;28;45494;-82
2024/01/21 06:49:32;;;;;;;;;17.67;13.67;;;;;;;;5043900;28;46973;-82
2024/01/21 06:51:57;;;;;;;;;17.25;14.50;;;;;;;;5042785;28;45734;-83
2024/01/21 06:54:22;;;;;;;;;11.33;11.33;;;;;;;;5042137;28;45364;-83
2024/01/21 06:56:47;;;;;;;;;15.00;12.00;;;;;;;;5043592;28;46082;-83
2024/01/21 06:59:12;;;;;;;;;17.25;13.50;;;;;;;;5063019;28;46636;-83
2024/01/21 07:01:38;;;;;;;;;16.00;16.00;;;;;;;;5042248;28;45366;-83
2024/01/21 07:04:03;;;;;;;;;14.25;12.25;;;;;;;;5060965;28;45426;-82
2024/01/21 07:06:28;;;;;;;;;14.67;12.67;;;;;;;;5042220;28;46378;-81
2024/01/21 07:08:53;;;;;;;;;11.00;10.67;;;;;;;;5062309;28;46566;-83
2024/01/21 07:11:18;;;;;;;;;14.33;13.00;;;;;;;;5069831;27;45263;-83
2024/01/21 07:13:44;;;;;;;;;17.33;16.00;;;;;;;;5047677;28;45361;-82
2024/01/21 07:16:09;;;;;;;;;15.75;15.75;;;;;;;;5079904;28;45778;-83
2024/01/21 07:18:35;;;;;;;;;14.75;13.25;;;;;;;;5087526;28;46214;-81
2024/01/21 07:21:00;;;;;;;;;16.25;15.00;;;;;;;;5073395;28;45342;-81
2024/01/21 07:23:26;;;;;;;;;22.25;15.00;;;;;;;;5072022;28;45312;-81
2024/01/21 07:25:51;;;;;;;;;15.75;14.00;;;;;;;;5094693;27;45526;-83
2024/01/21 07:28:16;;;;;;;;;14.00;12.33;;;;;;;;5096266;28;45326;-82
2024/01/21 07:30:41;;;;;;;;;13.50;12.50;;;;;;;;5094507;27;45274;-82
2024/01/21 07:33:06;;;;;;;;;15.50;14.00;;;;;;;;5074774;28;45377;-84
2024/01/21 07:35:32;;;;;;;;;16.00;15.00;;;;;;;;5078207;28;46369;-81
2024/01/21 07:37:57;;;;;;;;;13.33;13.33;;;;;;;;5078970;28;47006;-82
2024/01/21 07:40:22;;;;;;;;;14.50;13.75;;;;;;;;5094471;28;45336;-84
2024/01/21 07:42:48;;;;;;;;;16.75;12.25;;;;;;;;5092009;28;45268;-82
2024/01/21 07:45:13;;;;;;;;;14.75;14.75;;;;;;;;5097426;28;45595;-82
2024/01/21 07:47:41;;;;;;;;;12.33;11.33;;;;;;;;5095831;28;46314;-82
2024/01/21 07:50:07;;;;;;;;;14.50;14.25;;;;;;;;5076016;28;45354;-82
2024/01/21 07:52:32;;;;;;;;;12.50;11.00;;;;;;;;5092540;28;45437;-83
2024/01/21 07:54:57;;;;;;;;;11.00;8.00;;;;;;;;5074474;28;47099;-83
2024/01/21 07:57:22;;;;;;;;;15.33;14.00;;;;;;;;5081187;28;45433;-83
2024/01/21 07:59:48;;;;;;;;;13.33;13.33;;;;;;;;5052375;28;45752;-84
2024/01/21 08:02:14;;;;;;;;;13.67;12.67;;;;;;;;5064438;28;45315;-80
2024/01/21 08:04:39;;;;;;;;;12.00;12.00;;;;;;;;5083164;28;45236;-80
2024/01/21 08:07:04;;;;;;;;;16.25;16.00;;;;;;;;5082744;28;45343;-79
2024/01/21 08:09:30;;;;;;;;;11.67;11.67;;;;;;;;5054828;28;45380;-82
2024/01/21 08:11:55;;;;;;;;;16.75;12.50;;;;;;;;5049028;28;45319;-81
2024/01/21 08:14:20;;;;;;;;;16.33;13.33;;;;;;;;5065829;28;45360;-80
2024/01/21 08:16:46;;;;;;;;;11.33;11.00;;;;;;;;5066442;28;46280;-81
2024/01/21 08:19:11;;;;;;;;;10.00;7.00;;;;;;;;5065754;28;45430;-80
2024/01/21 08:21:36;;;;;;;;;16.33;14.67;;;;;;;;5065177;28;45379;-81
2024/01/21 08:24:02;;;;;;;;;15.67;13.00;;;;;;;;5064965;28;45232;-82
2024/01/21 08:26:27;;;;;;;;;13.67;13.67;;;;;;;;5043088;28;47860;-81
2024/01/21 08:28:52;;;;;;;;;11.67;11.67;;;;;;;;5061693;28;45249;-81
2024/01/21 08:31:18;;;;;;;;;13.00;11.33;;;;;;;;5070472;28;45364;-82
2024/01/21 08:33:43;;;;;;;;;12.00;12.00;;;;;;;;5051719;28;45952;-81
2024/01/21 08:36:11;;;;;;;;;10.67;10.33;;;;;;;;5053974;28;48426;-84
2024/01/21 08:38:38;;;;;;;;;13.00;12.00;;;;;;;;5061078;28;45477;-82
2024/01/21 08:41:03;;;;;;;;;13.67;13.67;;;;;;;;5042814;28;45367;-82
2024/01/21 08:43:28;;;;;;;;;13.33;12.00;;;;;;;;5061054;28;45327;-81
2024/01/21 08:45:53;;;;;;;;;17.00;17.00;;;;;;;;5040750;28;45461;-82
2024/01/21 08:48:19;;;;;;;;;15.67;12.67;;;;;;;;5034844;28;45319;-81
2024/01/21 08:50:44;;;;;;;;;16.33;14.67;;;;;;;;5041185;28;45554;-81
2024/01/21 08:53:09;;;;;;;;;18.67;18.00;;;;;;;;5031868;28;45540;-81
2024/01/21 08:55:34;;;;;;;;;12.00;10.33;;;;;;;;5043253;28;48115;-81
2024/01/21 08:58:00;;;;;;;;;8.33;3.00;;;;;;;;5047833;28;45259;-80
2024/01/21 09:00:25;;;;;;;;;13.67;13.00;;;;;;;;5039759;28;45351;-81
2024/01/21 09:02:50;;;;;;;;;16.33;15.67;;;;;;;;5041088;28;45497;-82
2024/01/21 09:05:15;;;;;;;;;14.33;14.00;;;;;;;;5041003;28;45287;-81
2024/01/21 09:07:41;;;;;;;;;15.00;13.00;;;;;;;;5049071;28;45351;-82
2024/01/21 09:10:08;;;;;;;;;17.75;15.50;;;;;;;;5071848;27;45553;-82
2024/01/21 09:12:33;;;;;;;;;12.67;12.67;;;;;;;;5053409;28;45582;-82
2024/01/21 09:14:59;;;;;;;;;13.67;11.67;;;;;;;;5068190;28;45327;-80
2024/01/21 09:17:24;;;;;;;;;16.67;16.67;;;;;;;;5051196;28;45241;-80
2024/01/21 09:19:49;;;;;;;;;20.33;18.33;;;;;;;;5060866;28;45545;-82
2024/01/21 09:22:14;;;;;;;;;15.67;13.00;;;;;;;;5060559;28;45506;-81
2024/01/21 09:24:40;;;;;;;;;13.33;13.33;;;;;;;;5043238;28;47157;-80
2024/01/21 09:27:05;;;;;;;;;19.00;18.67;;;;;;;;5043876;28;45291;-80
2024/01/21 09:29:30;;;;;;;;;10.33;10.33;;;;;;;;5071947;28;45478;-80
2024/01/21 09:31:56;;;;;;;;;19.33;16.67;;;;;;;;5050537;28;46341;-81
2024/01/21 09:34:22;;;;;;;;;14.33;14.33;;;;;;;;5075952;28;46518;-80
2024/01/21 09:36:47;;;;;;;;;15.67;15.33;;;;;;;;5072986;28;45417;-81
2024/01/21 09:39:12;;;;;;;;;17.33;16.00;;;;;;;;5052460;28;45379;-80
2024/01/21 09:41:46;;;;;;;;;14.00;14.00;;;;;;;;5068934;28;45394;-81
2024/01/21 09:44:11;;;;;;;;;13.00;12.33;;;;;;;;5068864;28;46842;-80
2024/01/21 09:46:36;;;;;;;;;13.00;12.67;;;;;;;;5062326;28;45327;-81
2024/01/21 09:49:02;;;;;;;;;19.33;17.33;;;;;;;;5048043;28;45463;-81
2024/01/21 09:51:29;;;;;;;;;7.00;7.00;;;;;;;;5049831;28;47512;-82
2024/01/21 09:53:54;;;;;;;;;9.00;7.67;;;;;;;;5066366;28;47414;-82
2024/01/21 09:56:20;;;;;;;;;9.33;8.00;;;;;;;;5074355;28;45348;-83
2024/01/21 09:58:48;;;;;;;;;15.33;14.67;;;;;;;;5058516;28;45371;-82
2024/01/21 10:01:14;;;;;;;;;14.33;12.00;;;;;;;;5071472;28;45517;-83
2024/01/21 10:03:39;;;;;;;;;14.00;13.00;;;;;;;;5060170;28;45295;-84
2024/01/21 10:06:04;;;;;;;;;11.67;11.33;;;;;;;;5041997;28;45240;-83
2024/01/21 10:08:30;;;;;;;;;15.00;15.00;;;;;;;;5061176;28;45314;-85
2024/01/21 10:10:56;;;;;;;;;13.67;13.00;;;;;;;;5069964;28;45255;-85
2024/01/21 10:13:25;;;;;;;;;15.00;14.00;;;;;;;;5067994;28;45410;-84
2024/01/21 10:15:50;;;;;;;;;15.33;14.00;;;;;;;;5080488;28;45351;-83
2024/01/21 10:18:15;;;;;;;;;13.67;11.67;;;;;;;;5044078;28;45405;-80
2024/01/21 10:20:41;;;;;;;;;14.67;14.67;;;;;;;;5053712;28;45539;-80
2024/01/21 10:23:13;;;;;;;;;10.00;10.00;;;;;;;;5065817;28;46720;-82
2024/01/21 10:25:40;;;;;;;;;16.00;14.67;;;;;;;;5050100;28;45600;-82
2024/01/21 10:28:06;;;;;;;;;16.67;16.67;;;;;;;;5068942;28;45316;-81
2024/01/21 10:30:31;;;;;;;;;19.00;15.33;;;;;;;;5069484;28;45584;-81
2024/01/21 10:32:56;;;;;;;;;15.00;14.33;;;;;;;;5067682;27;45511;-81
2024/01/21 10:35:21;;;;;;;;;13.33;13.33;;;;;;;;5070365;28;45339;-81
2024/01/21 10:37:47;;;;;;;;;14.33;13.00;;;;;;;;5064815;28;45345;-82
2024/01/21 10:40:12;;;;;;;;;17.00;15.00;;;;;;;;5055838;28;46934;-81
2024/01/21 10:42:39;;;;;;;;;10.33;9.33;;;;;;;;5075683;28;45752;-80
2024/01/21 10:45:04;;;;;;;;;14.00;14.00;;;;;;;;5057258;28;45528;-81
2024/01/21 10:47:31;;;;;;;;;14.67;14.67;;;;;;;;5053594;28;45185;-84
2024/01/21 10:49:57;;;;;;;;;11.00;10.33;;;;;;;;5068097;28;45346;-83
2024/01/21 10:52:22;;;;;;;;;13.33;13.33;;;;;;;;5042599;28;47380;-80
2024/01/21 10:54:47;;;;;;;;;13.67;12.33;;;;;;;;5054906;28;45337;-78
2024/01/21 10:57:13;;;;;;;;;9.67;9.67;;;;;;;;5056479;28;45222;-82
2024/01/21 10:59:39;;;;;;;;;10.00;10.00;;;;;;;;5039668;28;45571;-81
2024/01/21 11:02:04;;;;;;;;;12.67;12.33;;;;;;;;5039600;28;45293;-81
2024/01/21 11:04:30;;;;;;;;;16.00;15.00;;;;;;;;5041362;28;45400;-81
2024/01/21 11:06:55;;;;;;;;;14.67;14.67;;;;;;;;5040697;28;45368;-84
2024/01/21 11:09:23;;;;;;;;;13.67;13.33;;;;;;;;5021714;28;47411;-82
2024/01/21 11:11:49;;;;;;;;;10.00;10.00;;;;;;;;5039813;28;45280;-81
2024/01/21 11:14:31;;;;;;;;;11.67;11.67;;;;;;;;5021641;28;45346;-79
2024/01/21 11:16:57;;;;;;;;;16.67;16.00;;;;;;;;5039122;28;45503;-79
2024/01/21 11:19:24;;;;;;;;;13.67;12.33;;;;;;;;5020841;28;45512;-80
2024/01/21 11:21:53;;;;;;;;;12.00;11.00;;;;;;;;5020757;28;47385;-80
2024/01/21 11:24:18;;;;;;;;;13.67;13.67;;;;;;;;5038936;28;45479;-80
2024/01/21 11:26:46;;;;;;;;;14.67;14.00;;;;;;;;5021809;28;45487;-81
2024/01/21 11:29:21;;;;;;;;;15.00;12.67;;;;;;;;5038409;28;45446;-82
2024/01/21 11:31:50;;;;;;;;;13.67;11.67;;;;;;;;5021067;28;48558;-79
2024/01/21 11:34:16;;;;;;;;;12.00;11.33;;;;;;;;5038951;28;45265;-81
2024/01/21 11:36:42;;;;;;;;;13.67;13.33;;;;;;;;5040099;28;45486;-80
2024/01/21 11:39:08;;;;;;;;;14.00;14.00;;;;;;;;5038764;28;45316;-80
2024/01/21 11:41:41;;;;;;;;;16.33;12.33;;;;;;;;5022426;28;48149;-81
2024/01/21 11:44:26;;;;;;;;;16.00;15.33;;;;;;;;5041018;28;45447;-82
2024/01/21 11:47:01;;;;;;;;;14.67;12.67;;;;;;;;5038961;28;45333;-82
2024/01/21 11:49:27;;;;;;;;;14.67;14.33;;;;;;;;5050890;28;45347;-83
2024/01/21 11:51:52;;;;;;;;;7.67;7.67;;;;;;;;5040674;28;47946;-78
2024/01/21 11:54:19;;;;;;;;;12.33;12.33;;;;;;;;5047094;28;45364;-83
2024/01/21 11:56:45;;;;;;;;;14.00;12.67;;;;;;;;5071870;28;45479;-80
2024/01/21 11:59:10;;;;;;;;;14.67;13.33;;;;;;;;5055825;28;45542;-80
2024/01/21 12:01:36;;;;;;;;;13.67;13.00;;;;;;;;5054904;28;46404;-81
2024/01/21 12:04:02;;;;;;;;;11.33;11.33;;;;;;;;5054151;28;45360;-80
2024/01/21 12:06:29;;;;;;;;;16.33;14.00;;;;;;;;5046284;28;45239;-80
2024/01/21 12:08:54;;;;;;;;;19.00;13.00;;;;;;;;5064754;28;45286;-80
2024/01/21 12:11:19;;;;;;;;;15.33;14.00;;;;;;;;5062276;28;46110;-79
2024/01/21 12:13:45;;;;;;;;;13.67;12.33;;;;;;;;5062211;28;45406;-80
2024/01/21 12:16:10;;;;;;;;;13.33;11.33;;;;;;;;5062476;28;45363;-79
2024/01/21 12:18:42;;;;;;;;;10.00;10.00;;;;;;;;5061932;28;45414;-80
2024/01/21 12:21:10;;;;;;;;;17.00;12.67;;;;;;;;5061684;28;46209;-82
2024/01/21 12:23:45;;;;;;;;;11.00;11.00;;;;;;;;5062714;28;45421;-81
2024/01/21 12:26:16;;;;;;;;;17.00;15.33;;;;;;;;5067576;28;45198;-82
2024/01/21 12:28:54;;;;;;;;;12.33;12.33;;;;;;;;5063480;28;45250;-82
2024/01/21 12:31:20;;;;;;;;;16.00;13.67;;;;;;;;5043326;28;47045;-80
2024/01/21 12:33:46;;;;;;;;;9.67;7.67;;;;;;;;5062024;28;45452;-79
2024/01/21 12:36:11;;;;;;;;;15.67;13.67;;;;;;;;5061790;28;45538;-80
2024/01/21 12:38:36;;;;;;;;;12.00;12.00;;;;;;;;5043425;28;46324;-81
2024/01/21 12:41:01;;;;;;;;;12.00;10.33;;;;;;;;5061422;28;46401;-82
2024/01/21 12:43:26;;;;;;;;;16.00;14.33;;;;;;;;5043364;28;45406;-83
2024/01/21 12:45:52;;;;;;;;;21.67;17.00;;;;;;;;5062100;28;45343;-84
2024/01/21 12:48:17;;;;;;;;;13.33;12.00;;;;;;;;5066142;28;45502;-80
2024/01/21 12:50:43;;;;;;;;;18.00;18.00;;;;;;;;5045430;28;47187;-80
2024/01/21 12:53:09;;;;;;;;;7.67;1.00;;;;;;;;5032752;28;45377;-82
2024/01/21 12:55:34;;;;;;;;;19.00;16.33;;;;;;;;5041564;28;45486;-82
2024/01/21 12:57:59;;;;;;;;;13.00;13.00;;;;;;;;5054636;28;45388;-81
2024/01/21 13:00:25;;;;;;;;;15.00;14.33;;;;;;;;5062761;28;45528;-81
2024/01/21 13:02:50;;;;;;;;;15.00;15.00;;;;;;;;5063904;28;45321;-80
2024/01/21 13:05:16;;;;;;;;;15.33;15.00;;;;;;;;5059920;28;45672;-81
2024/01/21 13:07:41;;;;;;;;;8.67;7.00;;;;;;;;5060852;28;45495;-79
2024/01/21 13:10:07;;;;;;;;;13.67;12.67;;;;;;;;5059315;28;45326;-78
2024/01/21 13:12:32;;;;;;;;;13.33;11.00;;;;;;;;5040724;28;45327;-78
2024/01/21 13:14:57;;;;;;;;;15.67;14.00;;;;;;;;5060959;28;45340;-78
2024/01/21 13:17:22;;;;;;;;;12.00;12.00;;;;;;;;5060702;28;45289;-79
2024/01/21 13:19:47;;;;;;;;;14.33;10.67;;;;;;;;5042544;28;47328;-78
2024/01/21 13:22:12;;;;;;;;;15.00;15.00;;;;;;;;5042741;28;45273;-79
2024/01/21 13:24:38;;;;;;;;;13.67;13.67;;;;;;;;5043204;28;45295;-79
2024/01/21 13:27:07;;;;;;;;;7.00;7.00;;;;;;;;5061001;28;45650;-78
2024/01/21 13:32:17;;;;;;;;;11.67;11.67;;;;;;;;5061249;28;45346;-78
2024/01/21 13:34:42;;;;;;;;;16.33;13.00;;;;;;;;5060836;28;45492;-79
2024/01/21 13:37:12;;;;;;;;;18.33;16.33;;;;;;;;5061598;28;45308;-78
2024/01/21 13:39:37;;;;;;;;;14.00;12.00;;;;;;;;5043281;28;47781;-79
2024/01/21 13:42:03;;;;;;;;;14.67;14.67;;;;;;;;5042781;28;45668;-78
2024/01/21 13:44:30;;;;;;;;;18.67;18.33;;;;;;;;5061415;28;45546;-79
2024/01/21 13:46:57;;;;;;;;;16.33;16.33;;;;;;;;5060944;28;45350;-79
2024/01/21 13:49:23;;;;;;;;;20.00;17.67;;;;;;;;5061104;28;45402;-79
2024/01/21 13:51:48;;;;;;;;;16.00;15.33;;;;;;;;5061208;28;45414;-78
2024/01/21 13:54:13;;;;;;;;;19.33;16.67;;;;;;;;5059996;28;45463;-79
2024/01/21 13:56:41;;;;;;;;;16.33;16.33;;;;;;;;5042667;28;47361;-77
2024/01/21 13:59:07;;;;;;;;;14.67;14.00;;;;;;;;5061082;28;46440;-79
2024/01/21 14:01:32;;;;;;;;;16.33;16.33;;;;;;;;5061635;28;45238;-80
2024/01/21 14:03:58;;;;;;;;;15.00;14.67;;;;;;;;5062026;28;45368;-79
2024/01/21 14:06:23;;;;;;;;;19.00;17.00;;;;;;;;5062130;28;45250;-79
2024/01/21 14:08:48;;;;;;;;;15.00;13.67;;;;;;;;5062022;28;45280;-79
2024/01/21 14:11:13;;;;;;;;;25.33;22.33;;;;;;;;5062202;28;45216;-79
2024/01/21 14:13:40;;;;;;;;;21.67;21.00;;;;;;;;5061885;28;45149;-79